createdAt,value
2023-01-04T00:01:35.899Z,123.35
2023-01-04T00:04:03.991Z,128.48
2023-01-04T00:06:31.961Z,140.02
2023-01-04T00:08:59.971Z,132.43
2023-01-04T00:11:27.962Z,146.57
2023-01-04T00:13:59.117Z,137.15
2023-01-04T00:16:29.158Z,154.23
2023-01-04T00:18:58.684Z,148.30
2023-01-04T00:21:28.170Z,156.25
2023-01-04T00:23:57.838Z,158.70
2023-01-04T00:26:27.885Z,158.55
2023-01-04T00:28:56.577Z,156.98
2023-01-04T00:31:25.591Z,158.35
2023-01-04T00:33:55.319Z,150.75
2023-01-04T00:36:25.339Z,153.57
2023-01-04T00:39:08.912Z,155.00
2023-01-04T00:44:27.003Z,151.25
2023-01-04T00:46:55.151Z,140.10
2023-01-04T00:49:23.173Z,135.05
2023-01-04T00:51:52.977Z,139.45
2023-01-04T00:54:22.230Z,138.68
2023-01-04T00:56:50.686Z,143.35
2023-01-04T00:59:20.874Z,148.40
2023-01-04T01:01:49.432Z,136.82
2023-01-04T01:04:19.566Z,135.18
2023-01-04T01:06:48.097Z,133.50
2023-01-04T01:09:18.024Z,132.02
2023-01-04T01:11:46.084Z,131.57
2023-01-04T01:14:18.408Z,137.13
2023-01-04T01:17:02.446Z,129.57
2023-01-04T01:19:32.072Z,138.32
2023-01-04T01:22:00.171Z,138.88
2023-01-04T01:24:29.547Z,131.35
2023-01-04T01:26:57.940Z,133.93
2023-01-04T01:29:26.205Z,136.55
2023-01-04T01:31:54.443Z,140.88
2023-01-04T01:34:22.567Z,148.88
2023-01-04T01:36:50.652Z,149.63
2023-01-04T01:39:18.757Z,145.45
2023-01-04T01:41:48.617Z,143.75
2023-01-04T01:45:10.900Z,144.30
2023-01-04T01:47:44.320Z,144.63
2023-01-04T01:50:24.712Z,144.38
2023-01-04T01:52:54.297Z,143.73
2023-01-04T01:55:22.775Z,146.85
2023-01-04T01:57:53.377Z,140.88
2023-01-04T02:00:21.596Z,132.18
2023-01-04T02:02:58.144Z,143.23
2023-01-04T02:05:28.281Z,140.55
2023-01-04T02:07:56.481Z,147.65
2023-01-04T02:10:25.821Z,138.85
2023-01-04T02:12:55.172Z,136.10
2023-01-04T02:15:27.048Z,137.13
2023-01-04T02:18:02.253Z,138.18
2023-01-04T02:20:41.317Z,144.85
2023-01-04T02:23:41.861Z,128.90
2023-01-04T02:26:43.126Z,140.18
2023-01-04T02:29:42.972Z,136.30
2023-01-04T02:32:16.327Z,133.85
2023-01-04T02:34:52.218Z,138.48
2023-01-04T02:37:33.813Z,135.77
2023-01-04T02:40:08.933Z,138.32
2023-01-04T02:43:02.719Z,131.52
2023-01-04T02:45:33.859Z,133.70
2023-01-04T02:48:23.900Z,138.30
2023-01-04T02:50:54.587Z,133.00
2023-01-04T02:53:25.473Z,142.75
2023-01-04T02:56:00.093Z,143.50
2023-01-04T02:58:44.667Z,149.18
2023-01-04T03:01:35.392Z,142.13
2023-01-04T03:04:36.391Z,142.50
2023-01-04T03:07:13.826Z,141.52
2023-01-04T03:09:44.457Z,138.95
2023-01-04T03:12:35.862Z,136.45
2023-01-04T03:15:11.514Z,138.82
2023-01-04T03:17:45.533Z,140.38
2023-01-04T03:20:16.361Z,140.10
2023-01-04T03:23:05.538Z,141.52
2023-01-04T03:25:56.616Z,151.15
2023-01-04T03:28:46.075Z,140.07
2023-01-04T03:31:52.776Z,132.00
2023-01-04T03:34:38.586Z,133.85
2023-01-04T03:37:15.177Z,142.25
2023-01-04T03:40:17.755Z,129.38
2023-01-04T03:43:07.365Z,137.80
2023-01-04T03:45:57.983Z,134.93
2023-01-04T03:48:34.443Z,140.48
2023-01-04T03:51:08.957Z,134.98
2023-01-04T03:53:42.497Z,130.07
2023-01-04T03:56:12.642Z,126.65
2023-01-04T03:58:40.905Z,124.32
2023-01-04T04:01:09.451Z,130.43
2023-01-04T04:03:55.203Z,146.07
2023-01-04T04:06:40.801Z,139.07
2023-01-04T04:09:10.139Z,133.82
2023-01-04T04:11:38.195Z,139.68
2023-01-04T04:14:06.211Z,128.73
2023-01-04T04:16:34.359Z,125.43
2023-01-04T04:19:08.127Z,124.55
2023-01-04T04:21:36.989Z,125.38
2023-01-04T04:24:05.664Z,118.22
2023-01-04T04:26:35.068Z,116.00
2023-01-04T04:29:03.077Z,115.95
2023-01-04T04:31:31.130Z,119.43
2023-01-04T04:33:59.207Z,138.98
2023-01-04T04:36:27.204Z,115.28
2023-01-04T04:38:55.167Z,123.32
2023-01-04T04:41:41.295Z,131.80
2023-01-04T04:44:12.900Z,127.38
2023-01-04T04:46:41.263Z,124.38
2023-01-04T04:49:09.824Z,129.73
2023-01-04T04:51:38.240Z,132.35
2023-01-04T04:54:06.896Z,146.15
2023-01-04T04:56:36.679Z,141.73
2023-01-04T04:59:04.850Z,137.18
2023-01-04T05:01:34.928Z,138.20
2023-01-04T05:04:03.085Z,147.65
2023-01-04T05:06:31.064Z,145.65
2023-01-04T05:08:59.025Z,150.90
2023-01-04T05:11:40.962Z,147.35
2023-01-04T05:14:09.286Z,152.45
2023-01-04T05:16:38.735Z,147.13
2023-01-04T05:19:06.826Z,161.23
2023-01-04T05:21:34.826Z,151.15
2023-01-04T05:24:02.770Z,159.25
2023-01-04T05:26:30.751Z,162.25
2023-01-04T05:28:58.742Z,148.43
2023-01-04T05:31:26.519Z,152.27
2023-01-04T05:33:55.923Z,148.68
2023-01-04T05:36:23.965Z,141.02
2023-01-04T05:38:51.968Z,153.65
2023-01-04T05:41:37.222Z,142.57
2023-01-04T05:44:05.202Z,144.10
2023-01-04T05:46:33.240Z,145.52
2023-01-04T05:49:02.678Z,138.18
2023-01-04T05:51:30.632Z,140.75
2023-01-04T05:53:58.559Z,132.70
2023-01-04T05:56:26.515Z,148.43
2023-01-04T05:58:54.496Z,141.65
2023-01-04T06:01:22.524Z,132.77
2023-01-04T06:03:50.695Z,144.15
2023-01-04T06:06:20.101Z,129.18
2023-01-04T06:08:48.041Z,142.45
2023-01-04T06:11:15.962Z,134.93
2023-01-04T06:13:43.950Z,131.85
2023-01-04T06:16:11.938Z,145.90
2023-01-04T06:18:39.949Z,135.65
2023-01-04T06:21:07.898Z,122.05
2023-01-04T06:23:37.212Z,132.05
2023-01-04T06:26:05.360Z,138.52
2023-01-04T06:28:40.362Z,131.85
2023-01-04T06:31:10.765Z,135.60
2023-01-04T06:33:39.145Z,134.82
2023-01-04T06:36:08.428Z,141.75
2023-01-04T06:38:49.526Z,134.35
2023-01-04T06:41:17.692Z,132.25
2023-01-04T06:43:45.696Z,129.68
2023-01-04T06:46:13.714Z,128.13
2023-01-04T06:48:42.164Z,131.75
2023-01-04T06:51:10.630Z,136.95
2023-01-04T06:53:38.682Z,134.30
2023-01-04T06:56:09.271Z,125.05
2023-01-04T06:58:37.235Z,124.43
2023-01-04T07:01:05.933Z,129.75
2023-01-04T07:03:34.024Z,132.63
2023-01-04T07:06:06.060Z,127.50
2023-01-04T07:08:34.467Z,129.40
2023-01-04T07:11:02.459Z,131.93
2023-01-04T07:13:31.789Z,129.80
2023-01-04T07:15:59.768Z,134.63
2023-01-04T07:18:27.723Z,132.02
2023-01-04T07:20:55.783Z,141.93
2023-01-04T07:23:23.771Z,138.60
2023-01-04T07:25:51.717Z,138.45
2023-01-04T07:28:33.539Z,139.70
2023-01-04T07:31:07.017Z,145.32
2023-01-04T07:33:35.180Z,143.18
2023-01-04T07:36:04.980Z,144.18
2023-01-04T07:38:33.746Z,140.32
2023-01-04T07:41:01.976Z,139.63
2023-01-04T07:43:29.974Z,138.50
2023-01-04T07:45:57.966Z,141.45
2023-01-04T07:48:29.448Z,134.40
2023-01-04T07:50:57.394Z,138.73
2023-01-04T07:53:25.423Z,143.32
2023-01-04T07:55:57.110Z,146.65
2023-01-04T07:58:25.595Z,148.00
2023-01-04T08:00:53.538Z,141.18
2023-01-04T08:03:21.587Z,152.63
2023-01-04T08:05:50.937Z,150.45
2023-01-04T08:08:18.907Z,150.05
2023-01-04T08:10:46.814Z,154.00
2023-01-04T08:13:14.753Z,161.25
2023-01-04T08:15:42.759Z,163.38
2023-01-04T08:18:10.776Z,164.18
2023-01-04T08:20:38.804Z,163.45
2023-01-04T08:23:08.166Z,163.68
2023-01-04T08:25:36.150Z,161.38
2023-01-04T08:28:04.170Z,169.15
2023-01-04T08:30:32.160Z,157.45
2023-01-04T08:33:00.267Z,161.45
2023-01-04T08:35:28.297Z,164.95
2023-01-04T08:38:12.362Z,151.20
2023-01-04T08:41:00.174Z,155.68
2023-01-04T08:43:31.797Z,157.80
2023-01-04T08:45:59.918Z,159.65
2023-01-04T08:48:27.948Z,150.60
2023-01-04T08:50:56.006Z,142.65
2023-01-04T08:53:24.002Z,138.82
2023-01-04T08:55:54.142Z,146.45
2023-01-04T08:58:22.609Z,148.95
2023-01-04T09:00:51.174Z,154.15
2023-01-04T09:03:19.388Z,144.52
2023-01-04T09:05:47.659Z,150.20
2023-01-04T09:08:15.580Z,156.65
2023-01-04T09:10:43.527Z,146.43
2023-01-04T09:13:12.969Z,160.18
2023-01-04T09:15:40.990Z,167.52
2023-01-04T09:18:30.728Z,161.90
2023-01-04T09:21:01.350Z,147.38
2023-01-04T09:23:30.457Z,142.90
2023-01-04T09:25:58.473Z,160.65
2023-01-04T09:28:27.931Z,141.93
2023-01-04T09:30:55.960Z,136.02
2023-01-04T09:33:41.399Z,145.02
2023-01-04T09:36:14.658Z,135.18
2023-01-04T09:38:43.430Z,138.15
2023-01-04T09:41:25.387Z,136.90
2023-01-04T09:43:56.393Z,139.35
2023-01-04T09:46:34.112Z,136.95
2023-01-04T09:49:15.692Z,135.43
2023-01-04T09:51:49.762Z,130.60
2023-01-04T09:54:24.684Z,130.25
2023-01-04T09:56:58.254Z,129.80
2023-01-04T09:59:31.372Z,130.68
2023-01-04T10:02:04.634Z,124.22
2023-01-04T10:04:44.403Z,123.55
2023-01-04T10:07:18.835Z,118.30
2023-01-04T10:09:46.855Z,123.35
2023-01-04T10:12:33.274Z,122.32
2023-01-04T10:15:16.527Z,119.65
2023-01-04T10:24:05.757Z,123.63
2023-01-04T10:26:38.742Z,115.63
2023-01-04T10:29:27.026Z,114.20
2023-01-04T10:32:01.531Z,119.05
2023-01-04T10:34:32.880Z,112.20
2023-01-04T10:37:05.520Z,103.53
2023-01-04T10:39:36.316Z,100.88
2023-01-04T10:42:16.913Z,112.00
2023-01-04T10:44:56.958Z,109.85
2023-01-04T10:47:36.127Z,112.55
2023-01-04T10:50:09.840Z,103.68
2023-01-04T10:52:43.159Z,99.75
2023-01-04T10:55:18.231Z,96.78
2023-01-04T10:57:53.108Z,100.28
2023-01-04T11:00:24.634Z,91.05
2023-01-04T11:03:08.854Z,93.65
2023-01-04T11:05:42.605Z,92.38
2023-01-04T11:08:15.287Z,94.93
2023-01-04T11:10:49.063Z,80.75
2023-01-04T11:13:17.358Z,82.07
2023-01-04T11:15:47.750Z,87.15
2023-01-04T11:18:18.467Z,87.93
2023-01-04T11:20:46.744Z,84.35
2023-01-04T11:23:16.904Z,76.60
2023-01-04T11:25:56.308Z,78.70
2023-01-04T11:28:28.766Z,78.75
2023-01-04T11:31:03.003Z,79.30
2023-01-04T11:33:51.731Z,67.65
2023-01-04T11:36:34.759Z,63.90
2023-01-04T11:39:03.733Z,60.50
2023-01-04T11:41:31.825Z,55.03
2023-01-04T11:44:02.022Z,60.85
2023-01-04T11:46:31.129Z,56.33
2023-01-04T11:49:00.808Z,57.78
2023-01-04T11:51:40.969Z,56.75
2023-01-04T11:54:20.829Z,54.75
2023-01-04T11:57:10.831Z,53.67
2023-01-04T11:59:39.654Z,56.15
2023-01-04T12:02:58.628Z,56.40
2023-01-04T12:05:28.119Z,59.05
2023-01-04T12:07:57.825Z,55.60
2023-01-04T12:10:27.936Z,57.75
2023-01-04T12:12:57.549Z,51.53
2023-01-04T12:15:33.350Z,42.63
2023-01-04T12:18:05.631Z,42.78
2023-01-04T12:23:03.390Z,42.85
2023-01-04T12:25:39.223Z,42.15
2023-01-04T12:28:07.913Z,50.20
2023-01-04T12:30:39.036Z,42.90
2023-01-04T12:33:39.879Z,41.92
2023-01-04T12:36:10.795Z,42.88
2023-01-04T12:39:00.077Z,40.08
2023-01-04T12:42:19.489Z,46.40
2023-01-04T12:45:16.974Z,39.20
2023-01-04T12:48:04.261Z,40.00
2023-01-04T12:50:34.909Z,39.83
2023-01-04T12:55:56.797Z,38.92
2023-01-04T12:59:24.694Z,43.33
2023-01-04T13:02:16.954Z,39.72
2023-01-04T13:04:45.704Z,38.20
2023-01-04T13:07:21.133Z,39.78
2023-01-04T13:09:57.919Z,38.05
2023-01-04T13:12:44.419Z,39.95
2023-01-04T13:15:26.343Z,36.30
2023-01-04T13:17:55.419Z,39.83
2023-01-04T13:20:27.016Z,36.78
2023-01-04T13:22:57.965Z,34.42
2023-01-04T13:25:28.554Z,33.58
2023-01-04T13:27:59.284Z,37.05
2023-01-04T13:30:36.077Z,34.13
2023-01-04T13:33:26.235Z,36.92
2023-01-04T13:36:03.178Z,28.35
2023-01-04T13:38:34.649Z,34.38
2023-01-04T13:41:18.012Z,27.23
2023-01-04T13:43:57.817Z,29.90
2023-01-04T13:46:28.019Z,29.65
2023-01-04T13:49:01.852Z,24.65
2023-01-04T13:51:37.159Z,29.27
2023-01-04T13:54:08.364Z,23.23
2023-01-04T13:56:38.014Z,22.83
2023-01-04T13:59:06.448Z,25.65
2023-01-04T14:01:38.879Z,29.55
2023-01-04T14:04:14.591Z,24.00
2023-01-04T14:06:45.677Z,20.35
2023-01-04T14:09:19.147Z,27.00
2023-01-04T14:12:07.232Z,25.63
2023-01-04T14:14:51.625Z,24.25
2023-01-04T14:17:24.606Z,20.77
2023-01-04T14:19:55.011Z,25.33
2023-01-04T14:22:28.428Z,22.67
2023-01-04T14:25:13.537Z,26.52
2023-01-04T14:27:43.863Z,27.15
2023-01-04T14:30:25.420Z,27.75
2023-01-04T14:32:58.690Z,22.10
2023-01-04T14:35:28.817Z,29.98
2023-01-04T14:38:03.367Z,27.35
2023-01-04T14:40:33.322Z,28.17
2023-01-04T14:43:02.710Z,28.15
2023-01-04T14:45:30.749Z,35.80
2023-01-04T14:47:58.727Z,35.67
2023-01-04T14:50:26.765Z,29.38
2023-01-04T14:52:55.452Z,31.05
2023-01-04T14:55:24.762Z,36.25
2023-01-04T14:57:52.805Z,34.30
2023-01-04T15:00:22.505Z,34.97
2023-01-04T15:02:52.036Z,33.58
2023-01-04T15:05:20.744Z,40.22
2023-01-04T15:07:49.258Z,35.13
2023-01-04T15:10:22.215Z,29.38
2023-01-04T15:12:50.291Z,39.67
2023-01-04T15:15:18.894Z,35.08
2023-01-04T15:17:48.718Z,34.38
2023-01-04T15:20:16.851Z,37.53
2023-01-04T15:22:44.980Z,37.53
2023-01-04T15:25:13.062Z,29.25
2023-01-04T15:27:42.792Z,36.80
2023-01-04T15:30:12.466Z,32.97
2023-01-04T15:32:40.663Z,40.40
2023-01-04T15:35:10.706Z,33.85
2023-01-04T15:37:38.760Z,37.35
2023-01-04T15:40:07.701Z,39.42
2023-01-04T15:42:53.036Z,34.25
2023-01-04T15:45:22.927Z,35.15
2023-01-04T15:47:51.089Z,35.75
2023-01-04T15:50:21.521Z,40.45
2023-01-04T15:52:49.618Z,36.33
2023-01-04T15:55:17.865Z,28.90
2023-01-04T15:57:45.873Z,37.00
2023-01-04T16:00:15.236Z,34.72
2023-01-04T16:02:43.257Z,32.15
2023-01-04T16:05:11.680Z,32.88
2023-01-04T16:07:41.145Z,34.05
2023-01-04T16:10:09.891Z,32.55
2023-01-04T16:12:53.040Z,37.97
2023-01-04T16:15:24.646Z,33.72
2023-01-04T16:17:52.650Z,38.00
2023-01-04T16:20:20.930Z,32.72
2023-01-04T16:22:50.261Z,35.58
2023-01-04T16:25:18.331Z,35.60
2023-01-04T16:27:46.349Z,35.22
2023-01-04T16:30:15.421Z,37.05
2023-01-04T16:32:44.732Z,36.60
2023-01-04T16:35:13.694Z,32.58
2023-01-04T16:37:43.101Z,32.55
2023-01-04T16:40:14.421Z,36.08
2023-01-04T16:42:43.664Z,35.17
2023-01-04T16:45:12.757Z,36.42
2023-01-04T16:47:42.380Z,38.10
2023-01-04T16:50:11.290Z,39.72
2023-01-04T16:52:39.561Z,37.80
2023-01-04T16:55:09.566Z,34.90
2023-01-04T16:57:39.418Z,48.95
2023-01-04T17:00:09.044Z,36.25
2023-01-04T17:02:37.310Z,38.65
2023-01-04T17:05:06.114Z,43.97
2023-01-04T17:07:34.560Z,40.08
2023-01-04T17:10:02.589Z,40.25
2023-01-04T17:12:47.963Z,44.75
2023-01-04T17:18:06.226Z,49.22
2023-01-04T17:20:34.238Z,43.42
2023-01-04T17:23:02.201Z,48.47
2023-01-04T17:25:30.143Z,50.65
2023-01-04T17:27:58.097Z,45.78
2023-01-04T17:30:27.466Z,48.10
2023-01-04T17:32:55.512Z,52.38
2023-01-04T17:35:23.594Z,48.25
2023-01-04T17:37:51.584Z,53.80
2023-01-04T17:40:23.205Z,54.13
2023-01-04T17:42:51.796Z,57.17
2023-01-04T17:45:19.757Z,50.88
2023-01-04T17:47:49.737Z,52.72
2023-01-04T17:50:19.391Z,59.40
2023-01-04T17:52:48.154Z,61.05
2023-01-04T17:55:16.556Z,47.45
2023-01-04T17:57:45.038Z,54.85
2023-01-04T18:00:14.916Z,67.70
2023-01-04T18:02:43.681Z,56.15
2023-01-04T18:05:13.083Z,91.13
2023-01-04T18:07:41.068Z,64.63
2023-01-04T18:10:20.567Z,66.85
2023-01-04T18:12:54.842Z,77.72
2023-01-04T18:15:22.830Z,67.70
2023-01-04T18:17:50.797Z,71.97
2023-01-04T18:20:25.099Z,65.75
2023-01-04T18:22:53.455Z,65.78
2023-01-04T18:25:21.444Z,60.13
2023-01-04T18:27:49.412Z,56.58
2023-01-04T18:30:17.495Z,59.95
2023-01-04T18:32:45.498Z,80.13
2023-01-04T18:35:14.086Z,58.60
2023-01-04T18:37:45.571Z,66.13
2023-01-04T18:40:14.130Z,65.72
2023-01-04T18:42:46.259Z,55.72
2023-01-04T18:45:14.282Z,54.47
2023-01-04T18:47:42.300Z,56.08
2023-01-04T18:50:10.894Z,57.72
2023-01-04T18:52:38.883Z,58.00
2023-01-04T18:55:09.026Z,61.42
2023-01-04T18:57:37.274Z,62.60
2023-01-04T19:00:06.122Z,67.78
2023-01-04T19:02:34.291Z,60.25
2023-01-04T19:05:02.573Z,58.60
2023-01-04T19:07:30.555Z,56.28
2023-01-04T19:09:58.616Z,61.25
2023-01-04T19:12:29.523Z,50.47
2023-01-04T19:14:57.550Z,55.45
2023-01-04T19:17:25.999Z,51.95
2023-01-04T19:19:54.089Z,52.30
2023-01-04T19:22:22.127Z,44.63
2023-01-04T19:24:50.198Z,53.08
2023-01-04T19:27:19.574Z,56.25
2023-01-04T19:29:49.163Z,52.38
2023-01-04T19:32:21.090Z,49.20
2023-01-04T19:34:52.487Z,48.55
2023-01-04T19:37:20.465Z,49.47
2023-01-04T19:39:48.469Z,49.28
2023-01-04T19:42:16.480Z,46.13
2023-01-04T19:44:44.741Z,52.75
2023-01-04T19:47:14.117Z,43.67
2023-01-04T19:49:42.077Z,45.42
2023-01-04T19:52:10.009Z,45.92
2023-01-04T19:54:38.042Z,55.90
2023-01-04T19:57:08.215Z,42.95
2023-01-04T19:59:36.178Z,45.85
2023-01-04T20:02:04.407Z,45.22
2023-01-04T20:04:33.880Z,41.13
2023-01-04T20:07:01.845Z,53.55
2023-01-04T20:09:31.969Z,54.97
2023-01-04T20:12:00.349Z,43.78
2023-01-04T20:14:28.601Z,42.25
2023-01-04T20:16:56.641Z,45.90
2023-01-04T20:19:24.719Z,50.38
2023-01-04T20:21:54.045Z,46.40
2023-01-04T20:24:22.147Z,50.53
2023-01-04T20:26:50.296Z,36.20
2023-01-04T20:29:18.418Z,47.25
2023-01-04T20:31:46.415Z,52.83
2023-01-04T20:34:14.459Z,47.83
2023-01-04T20:36:42.797Z,41.05
2023-01-04T20:39:12.407Z,37.22
2023-01-04T20:42:00.481Z,40.70
2023-01-04T20:44:27.818Z,37.10
2023-01-04T20:46:55.785Z,47.10
2023-01-04T20:49:23.835Z,61.25
2023-01-04T20:51:51.854Z,48.65
2023-01-04T20:54:21.161Z,111.50
2023-01-04T20:56:49.161Z,56.80
2023-01-04T20:59:17.710Z,61.67
2023-01-04T21:01:46.180Z,47.17
2023-01-04T21:04:16.249Z,44.92
2023-01-04T21:06:44.314Z,43.90
2023-01-04T21:09:12.435Z,50.72
2023-01-04T21:11:41.876Z,59.20
2023-01-04T21:14:11.883Z,46.13
2023-01-04T21:16:41.368Z,46.60
2023-01-04T21:19:09.548Z,45.28
2023-01-04T21:21:37.521Z,51.42
2023-01-04T21:24:07.135Z,40.95
2023-01-04T21:26:35.084Z,48.35
2023-01-04T21:29:04.468Z,48.55
2023-01-04T21:31:32.804Z,51.28
2023-01-04T21:34:00.842Z,47.50
2023-01-04T21:36:29.254Z,47.95
2023-01-04T21:38:58.655Z,48.88
2023-01-04T21:41:27.223Z,46.85
2023-01-04T21:43:57.046Z,51.38
2023-01-04T21:46:27.385Z,40.95
2023-01-04T21:48:56.940Z,55.80
2023-01-04T21:51:25.698Z,39.65
2023-01-04T21:53:53.905Z,52.42
2023-01-04T21:56:24.289Z,48.10
2023-01-04T21:58:52.762Z,51.03
2023-01-04T22:01:22.805Z,51.72
2023-01-04T22:03:52.269Z,58.40
2023-01-04T22:06:22.813Z,43.17
2023-01-04T22:08:54.647Z,57.33
2023-01-04T22:11:22.869Z,48.33
2023-01-04T22:13:51.265Z,43.92
2023-01-04T22:16:19.507Z,50.72
2023-01-04T22:18:48.799Z,41.42
2023-01-04T22:21:20.293Z,55.25
2023-01-04T22:23:48.411Z,49.38
2023-01-04T22:26:16.680Z,46.13
2023-01-04T22:28:44.790Z,43.95
2023-01-04T22:31:14.367Z,51.63
2023-01-04T22:33:42.952Z,54.22
2023-01-04T22:36:19.105Z,43.58
2023-01-04T22:38:52.359Z,50.10
2023-01-04T22:41:21.815Z,46.15
2023-01-04T22:43:55.501Z,44.80
2023-01-04T22:46:26.441Z,43.22
2023-01-04T22:48:54.468Z,39.20
2023-01-04T22:51:23.345Z,46.20
2023-01-04T22:53:55.004Z,36.85
2023-01-04T22:56:23.451Z,41.63
2023-01-04T22:58:55.343Z,39.08
2023-01-04T23:01:24.443Z,44.00
2023-01-04T23:03:52.968Z,47.92
2023-01-04T23:06:21.971Z,44.10
2023-01-04T23:08:55.248Z,43.38
2023-01-04T23:11:27.663Z,44.67
2023-01-04T23:16:31.563Z,39.10
2023-01-04T23:19:00.215Z,41.97
2023-01-04T23:21:28.263Z,34.45
2023-01-04T23:23:56.266Z,37.53
2023-01-04T23:26:26.610Z,37.05
2023-01-04T23:28:54.654Z,36.72
2023-01-04T23:31:24.959Z,40.90
2023-01-04T23:33:54.806Z,39.53
2023-01-04T23:36:25.635Z,35.50
2023-01-04T23:38:55.017Z,41.33
2023-01-04T23:41:44.367Z,41.15
2023-01-04T23:44:19.766Z,37.25
2023-01-04T23:46:51.305Z,40.33
2023-01-04T23:49:19.313Z,39.83
2023-01-04T23:51:47.290Z,40.50
2023-01-04T23:54:15.315Z,41.55
2023-01-04T23:56:43.364Z,38.95
2023-01-04T23:59:12.007Z,44.88
